createdAt,value
2023-05-17T00:02:01.979Z,3.17
2023-05-17T00:05:23.285Z,3.40
2023-05-17T00:08:44.924Z,3.60
2023-05-17T00:12:07.029Z,3.83
2023-05-17T00:15:30.087Z,3.97
2023-05-17T00:18:51.775Z,2.90
2023-05-17T00:22:13.533Z,3.73
2023-05-17T00:25:34.864Z,3.23
2023-05-17T00:28:56.153Z,2.63
2023-05-17T00:32:19.025Z,3.60
2023-05-17T00:35:40.391Z,3.03
2023-05-17T00:39:01.807Z,3.63
2023-05-17T00:42:23.223Z,3.50
2023-05-17T00:45:44.480Z,3.20
2023-05-17T00:49:07.074Z,3.40
2023-05-17T00:52:28.681Z,3.73
2023-05-17T00:55:50.436Z,3.47
2023-05-17T00:59:14.540Z,2.93
2023-05-17T01:02:35.955Z,2.87
2023-05-17T01:05:58.911Z,3.37
2023-05-17T01:09:20.726Z,3.20
2023-05-17T01:12:56.781Z,2.97
2023-05-17T01:16:23.915Z,3.07
2023-05-17T01:19:58.055Z,3.57
2023-05-17T01:23:31.922Z,2.77
2023-05-17T01:26:55.985Z,2.73
2023-05-17T01:30:20.720Z,3.10
2023-05-17T01:33:42.321Z,3.47
2023-05-17T01:37:03.742Z,3.17
2023-05-17T01:40:25.892Z,2.60
2023-05-17T01:43:54.573Z,2.70
2023-05-17T01:47:21.994Z,2.87
2023-05-17T01:50:45.336Z,2.47
2023-05-17T01:54:11.432Z,2.37
2023-05-17T01:57:36.419Z,2.20
2023-05-17T02:01:03.102Z,2.37
2023-05-17T02:04:24.594Z,2.50
2023-05-17T02:07:46.075Z,2.40
2023-05-17T02:11:07.662Z,2.53
2023-05-17T02:14:28.905Z,2.37
2023-05-17T02:17:52.102Z,1.90
2023-05-17T02:21:14.032Z,2.50
2023-05-17T02:24:35.339Z,1.73
2023-05-17T02:27:57.043Z,2.73
2023-05-17T02:31:18.587Z,1.87
2023-05-17T02:34:41.369Z,1.97
2023-05-17T02:38:02.746Z,1.77
2023-05-17T02:41:24.291Z,2.43
2023-05-17T02:44:45.651Z,2.13
2023-05-17T02:48:07.482Z,1.97
2023-05-17T02:51:31.226Z,1.97
2023-05-17T02:54:52.887Z,1.90
2023-05-17T02:58:14.351Z,2.07
2023-05-17T03:01:36.119Z,2.30
2023-05-17T03:04:57.605Z,1.93
2023-05-17T03:08:20.305Z,1.50
2023-05-17T03:11:42.797Z,1.97
2023-05-17T03:15:04.225Z,1.50
2023-05-17T03:18:25.864Z,1.60
2023-05-17T03:21:47.537Z,2.20
2023-05-17T03:25:10.587Z,1.93
2023-05-17T03:28:32.127Z,1.77
2023-05-17T03:31:53.737Z,1.70
2023-05-17T03:35:15.003Z,1.50
2023-05-17T03:38:36.140Z,1.97
2023-05-17T03:41:59.190Z,1.30
2023-05-17T03:45:20.868Z,2.40
2023-05-17T03:48:42.843Z,1.70
2023-05-17T03:52:05.070Z,1.60
2023-05-17T03:55:26.841Z,2.27
2023-05-17T03:58:49.600Z,1.73
2023-05-17T04:02:10.999Z,1.83
2023-05-17T04:05:32.821Z,1.23
2023-05-17T04:08:55.092Z,2.00
2023-05-17T04:12:16.422Z,2.23
2023-05-17T04:15:39.179Z,2.10
2023-05-17T04:19:01.786Z,1.90
2023-05-17T04:22:23.503Z,2.50
2023-05-17T04:25:45.242Z,1.60
2023-05-17T04:29:06.801Z,2.33
2023-05-17T04:32:29.687Z,2.00
2023-05-17T04:35:52.082Z,2.00
2023-05-17T04:39:13.429Z,2.53
2023-05-17T04:42:34.781Z,2.30
2023-05-17T04:45:58.175Z,2.00
2023-05-17T04:49:21.036Z,2.10
2023-05-17T04:52:42.622Z,2.33
2023-05-17T04:56:04.576Z,2.57
2023-05-17T04:59:26.144Z,2.30
2023-05-17T05:02:48.015Z,2.17
2023-05-17T05:06:11.457Z,2.40
2023-05-17T05:09:32.992Z,1.70
2023-05-17T05:12:54.128Z,2.03
2023-05-17T05:16:15.683Z,1.90
2023-05-17T05:19:37.132Z,1.97
2023-05-17T05:23:00.912Z,2.07
2023-05-17T05:26:22.872Z,1.87
2023-05-17T05:29:44.612Z,2.33
2023-05-17T05:33:06.580Z,2.20
2023-05-17T05:36:28.101Z,2.70
2023-05-17T05:39:51.112Z,2.47
2023-05-17T05:43:12.397Z,2.43
2023-05-17T05:46:33.758Z,2.33
2023-05-17T05:49:55.142Z,2.20
2023-05-17T05:53:19.535Z,2.73
2023-05-17T05:56:42.566Z,2.43
2023-05-17T06:00:04.712Z,2.63
2023-05-17T06:03:26.374Z,2.10
2023-05-17T06:06:47.832Z,2.30
2023-05-17T06:10:11.422Z,1.60
2023-05-17T06:13:34.019Z,2.40
2023-05-17T06:16:55.192Z,2.00
2023-05-17T06:20:17.387Z,1.87
2023-05-17T06:23:38.815Z,1.30
2023-05-17T06:27:00.505Z,1.67
2023-05-17T06:30:23.432Z,2.00
2023-05-17T06:33:44.907Z,1.70
2023-05-17T06:37:06.390Z,2.23
2023-05-17T06:40:28.414Z,1.47
2023-05-17T06:43:49.892Z,1.87
2023-05-17T06:47:12.413Z,1.90
2023-05-17T06:50:34.206Z,2.13
2023-05-17T06:53:55.469Z,1.70
2023-05-17T06:57:16.825Z,1.70
2023-05-17T07:00:38.303Z,2.87
2023-05-17T07:04:01.088Z,1.70
2023-05-17T07:07:22.789Z,1.60
2023-05-17T07:10:44.243Z,1.87
2023-05-17T07:14:06.153Z,2.03
2023-05-17T07:17:27.676Z,1.83
2023-05-17T07:20:50.874Z,1.77
2023-05-17T07:24:12.237Z,1.80
2023-05-17T07:27:35.592Z,1.70
2023-05-17T07:30:57.124Z,1.50
2023-05-17T07:34:18.686Z,2.30
2023-05-17T07:37:41.595Z,2.10
2023-05-17T07:41:03.734Z,2.17
2023-05-17T07:44:25.174Z,2.10
2023-05-17T07:47:46.845Z,1.73
2023-05-17T07:51:08.646Z,1.67
2023-05-17T07:54:32.099Z,2.07
2023-05-17T07:57:53.493Z,1.63
2023-05-17T08:01:14.901Z,2.60
2023-05-17T08:04:36.915Z,1.90
2023-05-17T08:08:00.344Z,1.67
2023-05-17T08:11:23.308Z,1.70
2023-05-17T08:14:44.766Z,1.73
2023-05-17T08:18:06.915Z,1.63
2023-05-17T08:21:28.441Z,1.87
2023-05-17T08:24:49.711Z,1.97
2023-05-17T08:28:12.788Z,1.60
2023-05-17T08:31:34.345Z,1.90
2023-05-17T08:34:55.937Z,1.40
2023-05-17T08:38:19.906Z,1.80
2023-05-17T08:41:42.406Z,2.07
2023-05-17T08:45:08.503Z,1.90
2023-05-17T08:48:31.299Z,1.83
2023-05-17T08:51:55.384Z,1.80
2023-05-17T08:55:18.221Z,1.73
2023-05-17T08:58:55.602Z,1.90
2023-05-17T09:02:20.828Z,2.10
2023-05-17T09:05:43.412Z,2.63
2023-05-17T09:09:07.890Z,1.87
2023-05-17T09:12:29.772Z,1.97
2023-05-17T09:15:51.539Z,1.87
2023-05-17T09:19:18.514Z,1.70
2023-05-17T09:22:40.371Z,2.17
2023-05-17T09:26:08.947Z,2.07
2023-05-17T09:29:33.158Z,2.03
2023-05-17T09:32:55.726Z,2.27
2023-05-17T09:36:20.207Z,2.40
2023-05-17T09:39:41.782Z,2.07
2023-05-17T09:43:03.262Z,2.10
2023-05-17T09:46:24.990Z,1.80
2023-05-17T09:49:46.433Z,2.43
2023-05-17T09:53:23.944Z,2.10
2023-05-17T09:56:45.745Z,2.43
2023-05-17T10:00:12.009Z,2.10
2023-05-17T10:03:36.375Z,2.20
2023-05-17T10:07:00.194Z,1.90
2023-05-17T10:10:23.489Z,1.60
2023-05-17T10:13:48.792Z,1.60
2023-05-17T10:17:11.864Z,1.93
2023-05-17T10:20:34.470Z,1.50
2023-05-17T10:23:56.980Z,2.13
2023-05-17T10:27:21.584Z,1.67
2023-05-17T10:30:44.677Z,1.30
2023-05-17T10:34:07.311Z,1.60
2023-05-17T10:37:29.960Z,1.20
2023-05-17T10:40:53.922Z,1.40
2023-05-17T10:44:18.802Z,1.63
2023-05-17T10:47:42.645Z,1.37
2023-05-17T10:51:08.322Z,1.30
2023-05-17T10:54:38.594Z,1.70
2023-05-17T10:58:18.283Z,1.83
2023-05-17T11:01:56.158Z,1.70
2023-05-17T11:05:25.549Z,2.10
2023-05-17T11:09:08.123Z,1.80
2023-05-17T11:12:33.830Z,1.73
2023-05-17T11:16:05.463Z,1.47
2023-05-17T11:19:28.331Z,1.50
2023-05-17T11:22:56.361Z,1.40
2023-05-17T11:26:23.675Z,1.60
2023-05-17T11:29:48.484Z,1.40
2023-05-17T11:33:17.312Z,1.20
2023-05-17T11:36:53.393Z,2.13
2023-05-17T11:40:16.009Z,1.47
2023-05-17T11:43:37.780Z,1.60
2023-05-17T11:47:04.222Z,1.70
2023-05-17T11:50:27.435Z,1.63
2023-05-17T11:53:51.271Z,1.77
2023-05-17T11:57:16.644Z,1.10
2023-05-17T12:00:40.766Z,1.07
2023-05-17T12:04:03.646Z,1.27
2023-05-17T12:07:25.940Z,1.70
2023-05-17T12:10:50.499Z,1.10
2023-05-17T12:14:17.406Z,1.40
2023-05-17T12:17:44.394Z,1.50
2023-05-17T12:21:07.112Z,1.63
2023-05-17T12:24:38.453Z,1.90
2023-05-17T12:28:18.587Z,1.67
2023-05-17T12:31:43.643Z,1.53
2023-05-17T12:35:05.428Z,1.80
2023-05-17T12:38:31.931Z,2.13
2023-05-17T12:41:54.110Z,1.83
2023-05-17T12:45:16.895Z,1.70
2023-05-17T12:48:39.539Z,1.53
2023-05-17T12:52:05.618Z,1.73
2023-05-17T12:55:27.327Z,1.60
2023-05-17T12:59:07.988Z,1.90
2023-05-17T13:02:31.030Z,2.17
2023-05-17T13:06:00.087Z,1.90
2023-05-17T13:09:23.862Z,1.07
2023-05-17T13:12:55.027Z,1.33
2023-05-17T13:16:16.431Z,1.50
2023-05-17T13:19:40.440Z,1.30
2023-05-17T13:23:02.271Z,1.50
2023-05-17T13:26:23.518Z,1.47
2023-05-17T13:29:44.969Z,1.70
2023-05-17T13:33:06.494Z,1.20
2023-05-17T13:36:29.587Z,1.40
2023-05-17T13:39:51.029Z,1.10
2023-05-17T13:43:12.618Z,1.93
2023-05-17T13:46:34.289Z,1.77
2023-05-17T13:49:55.865Z,1.83
2023-05-17T13:53:18.701Z,1.57
2023-05-17T13:56:40.040Z,1.50
2023-05-17T14:00:01.905Z,1.40
2023-05-17T14:03:23.289Z,1.50
2023-05-17T14:06:47.242Z,1.20
2023-05-17T14:10:13.222Z,1.50
2023-05-17T14:13:34.710Z,1.57
2023-05-17T14:16:56.650Z,1.53
2023-05-17T14:20:18.154Z,1.60
2023-05-17T14:23:39.457Z,1.80
2023-05-17T14:27:02.528Z,2.10
2023-05-17T14:30:24.091Z,1.60
2023-05-17T14:33:45.631Z,1.93
2023-05-17T14:37:07.400Z,1.73
2023-05-17T14:40:28.881Z,1.30
2023-05-17T14:43:51.832Z,1.40
2023-05-17T14:47:13.426Z,1.57
2023-05-17T14:50:35.114Z,1.13
2023-05-17T14:53:56.801Z,1.37
2023-05-17T14:57:18.722Z,1.67
2023-05-17T15:00:47.314Z,1.70
2023-05-17T15:04:09.572Z,1.40
2023-05-17T15:07:31.451Z,1.60
2023-05-17T15:10:54.202Z,2.00
2023-05-17T15:14:21.237Z,1.30
2023-05-17T15:17:43.766Z,1.37
2023-05-17T15:21:05.508Z,1.27
2023-05-17T15:24:27.311Z,1.27
2023-05-17T15:27:49.146Z,1.80
2023-05-17T15:31:11.515Z,1.93
2023-05-17T15:34:34.292Z,1.73
2023-05-17T15:37:55.768Z,1.80
2023-05-17T15:41:19.129Z,1.50
2023-05-17T15:44:40.683Z,1.70
2023-05-17T15:48:02.740Z,2.30
2023-05-17T15:51:25.906Z,1.63
2023-05-17T15:54:50.098Z,2.07
2023-05-17T15:58:11.347Z,1.43
2023-05-17T16:01:33.005Z,1.97
2023-05-17T16:04:54.271Z,1.40
2023-05-17T16:08:20.299Z,1.40
2023-05-17T16:11:41.806Z,1.60
2023-05-17T16:15:03.348Z,1.73
2023-05-17T16:18:24.672Z,1.43
2023-05-17T16:21:50.411Z,1.40
2023-05-17T16:25:13.866Z,1.70
2023-05-17T16:28:36.896Z,1.67
2023-05-17T16:31:58.586Z,1.33
2023-05-17T16:35:22.186Z,1.67
2023-05-17T16:38:43.888Z,1.70
2023-05-17T16:42:07.154Z,1.90
2023-05-17T16:45:29.431Z,1.33
2023-05-17T16:48:52.625Z,1.50
2023-05-17T16:52:14.281Z,1.67
2023-05-17T16:55:36.642Z,1.30
2023-05-17T16:58:59.797Z,1.13
2023-05-17T17:02:21.850Z,1.20
2023-05-17T17:05:43.236Z,1.80
2023-05-17T17:09:08.375Z,1.40
2023-05-17T17:12:30.196Z,1.60
2023-05-17T17:15:53.069Z,1.33
2023-05-17T17:19:14.329Z,1.40
2023-05-17T17:22:35.955Z,1.70
2023-05-17T17:25:57.603Z,1.53
2023-05-17T17:29:18.822Z,1.53
2023-05-17T17:32:41.541Z,1.50
2023-05-17T17:36:04.592Z,1.70
2023-05-17T17:39:26.147Z,1.50
2023-05-17T17:42:47.430Z,1.43
2023-05-17T17:46:08.603Z,1.60
2023-05-17T17:49:31.466Z,2.10
2023-05-17T17:52:53.005Z,1.40
2023-05-17T17:56:14.373Z,2.20
2023-05-17T17:59:35.907Z,1.97
2023-05-17T18:02:57.218Z,2.17
2023-05-17T18:06:20.114Z,1.83
2023-05-17T18:09:41.466Z,1.80
2023-05-17T18:13:02.751Z,1.53
2023-05-17T18:16:24.031Z,1.73
2023-05-17T18:19:47.515Z,2.00
2023-05-17T18:23:11.355Z,1.80
2023-05-17T18:26:32.718Z,1.97
2023-05-17T18:29:54.264Z,1.90
2023-05-17T18:33:15.616Z,1.50
2023-05-17T18:36:37.395Z,1.93
2023-05-17T18:40:02.173Z,1.70
2023-05-17T18:43:23.531Z,1.87
2023-05-17T18:46:45.157Z,2.13
2023-05-17T18:50:07.758Z,1.67
2023-05-17T18:53:29.955Z,1.77
2023-05-17T18:56:52.852Z,1.87
2023-05-17T19:00:15.189Z,1.40
2023-05-17T19:03:36.801Z,1.73
2023-05-17T19:06:58.955Z,1.70
2023-05-17T19:10:21.545Z,1.20
2023-05-17T19:13:44.298Z,1.70
2023-05-17T19:17:05.866Z,1.53
2023-05-17T19:20:27.671Z,1.70
2023-05-17T19:23:49.179Z,1.80
2023-05-17T19:27:11.967Z,1.90
2023-05-17T19:30:35.263Z,1.60
2023-05-17T19:33:59.211Z,1.80
2023-05-17T19:37:20.584Z,1.70
2023-05-17T19:40:42.015Z,1.13
2023-05-17T19:44:03.592Z,1.20
2023-05-17T19:47:26.436Z,1.40
2023-05-17T19:50:48.725Z,1.33
2023-05-17T19:54:10.296Z,1.07
2023-05-17T19:57:31.974Z,1.70
2023-05-17T20:00:53.650Z,1.70
2023-05-17T20:04:16.945Z,1.17
2023-05-17T20:07:38.446Z,1.30
2023-05-17T20:10:59.821Z,1.30
2023-05-17T20:14:21.392Z,1.60
2023-05-17T20:17:43.041Z,1.57
2023-05-17T20:21:06.612Z,1.67
2023-05-17T20:24:29.015Z,1.73
2023-05-17T20:27:50.828Z,1.40
2023-05-17T20:31:12.617Z,1.77
2023-05-17T20:34:34.035Z,2.20
2023-05-17T20:37:57.050Z,1.87
2023-05-17T20:41:18.497Z,1.50
2023-05-17T20:44:40.261Z,1.83
2023-05-17T20:48:01.638Z,2.07
2023-05-17T20:51:23.341Z,1.90
2023-05-17T20:54:46.294Z,2.00
2023-05-17T20:58:07.636Z,2.27
2023-05-17T21:01:29.052Z,2.10
2023-05-17T21:04:52.584Z,2.07
2023-05-17T21:08:14.227Z,1.90
2023-05-17T21:11:37.350Z,2.53
2023-05-17T21:15:15.142Z,2.17
2023-05-17T21:18:40.218Z,1.90
2023-05-17T21:22:01.492Z,2.00
2023-05-17T21:25:23.377Z,2.27
2023-05-17T21:28:46.551Z,2.30
2023-05-17T21:32:09.321Z,1.77
2023-05-17T21:35:30.842Z,2.30
2023-05-17T21:38:52.352Z,2.03
2023-05-17T21:42:13.716Z,1.77
2023-05-17T21:45:36.545Z,2.00
2023-05-17T21:48:57.800Z,1.83
2023-05-17T21:52:19.345Z,1.70
2023-05-17T21:55:56.139Z,1.80
2023-05-17T21:59:22.317Z,1.43
2023-05-17T22:02:46.260Z,1.57
2023-05-17T22:06:08.003Z,2.27
2023-05-17T22:09:29.466Z,1.60
2023-05-17T22:12:56.381Z,1.57
2023-05-17T22:16:18.742Z,2.27
2023-05-17T22:19:41.846Z,1.70
2023-05-17T22:23:03.097Z,1.83
2023-05-17T22:26:24.748Z,1.77
2023-05-17T22:29:46.518Z,2.07
2023-05-17T22:33:07.901Z,1.47
2023-05-17T22:36:32.199Z,1.73
2023-05-17T22:39:53.692Z,1.57
2023-05-17T22:43:14.968Z,1.40
2023-05-17T22:46:36.583Z,1.60
2023-05-17T22:50:00.696Z,1.27
2023-05-17T22:53:23.661Z,2.20
2023-05-17T22:56:45.013Z,1.77
2023-05-17T23:00:09.156Z,1.40
2023-05-17T23:03:31.167Z,1.73
2023-05-17T23:06:54.059Z,1.57
2023-05-17T23:10:17.070Z,1.60
2023-05-17T23:13:38.384Z,1.37
2023-05-17T23:17:02.237Z,1.40
2023-05-17T23:20:25.950Z,2.20
2023-05-17T23:23:48.360Z,1.70
2023-05-17T23:27:12.687Z,2.07
2023-05-17T23:30:34.153Z,1.67
2023-05-17T23:33:55.237Z,1.50
2023-05-17T23:37:16.741Z,1.50
2023-05-17T23:40:38.054Z,1.50
2023-05-17T23:44:01.499Z,1.20
2023-05-17T23:47:23.194Z,1.53
2023-05-17T23:50:44.741Z,1.60
2023-05-17T23:54:06.540Z,1.10
2023-05-17T23:57:27.794Z,1.53
